Time;durP1;ratioP1;P1;durP2;ratioP2;P2;SDS_P1;SDS_P2;PMS_P1;PMS_P2;Temp;Humidity;BMP_temperature;BMP_pressure;BME280_temperature;BME280_humidity;BME280_pressure;Samples;Min_cycle;Max_cycle;Signal;HPM_P1;HPM_P2
2023/09/10 00:05:23;;;;;;;10.52;10.23;;;18.20;99.90;;;;;;6206771;23;20203;-83
2023/09/10 00:07:50;;;;;;;11.00;10.70;;;18.10;99.90;;;;;;6206627;23;20232;-83
2023/09/10 00:10:18;;;;;;;10.85;10.55;;;18.10;99.90;;;;;;6206819;23;20274;-83
2023/09/10 00:12:45;;;;;;;10.93;10.63;;;18.10;99.90;;;;;;6205740;23;20200;-83
2023/09/10 00:15:14;;;;;;;10.77;10.48;;;18.10;99.90;;;;;;6205515;23;20229;-83
2023/09/10 00:17:41;;;;;;;10.80;10.50;;;18.00;99.90;;;;;;6206955;23;20275;-82
2023/09/10 00:20:10;;;;;;;10.88;10.57;;;18.00;99.90;;;;;;6202756;23;20211;-83
2023/09/10 00:22:38;;;;;;;10.70;10.40;;;18.10;99.90;;;;;;6206434;23;20195;-83
2023/09/10 00:25:06;;;;;;;10.60;10.30;;;18.00;99.90;;;;;;6202930;23;20206;-83
2023/09/10 00:27:34;;;;;;;10.68;10.38;;;18.00;99.90;;;;;;6203292;23;20200;-83
2023/09/10 00:30:01;;;;;;;10.70;10.40;;;18.00;99.90;;;;;;6200472;23;20230;-84
2023/09/10 00:32:29;;;;;;;10.60;10.30;;;17.90;99.90;;;;;;6200712;23;20282;-84
2023/09/10 00:34:56;;;;;;;10.55;10.25;;;17.90;99.90;;;;;;6204523;23;20199;-82
2023/09/10 00:37:23;;;;;;;10.50;10.20;;;17.90;99.90;;;;;;6199426;23;20196;-82
2023/09/10 00:39:50;;;;;;;10.63;10.32;;;17.90;99.90;;;;;;6200057;23;20196;-83
2023/09/10 00:42:18;;;;;;;10.77;10.48;;;17.80;99.90;;;;;;6200740;23;20246;-83
2023/09/10 00:44:45;;;;;;;10.65;10.35;;;17.80;99.90;;;;;;6201209;23;20241;-83
2023/09/10 00:47:12;;;;;;;10.52;10.23;;;17.80;99.90;;;;;;6202404;23;20203;-83
2023/09/10 00:49:40;;;;;;;10.65;10.35;;;17.80;99.90;;;;;;6202814;23;20196;-83
2023/09/10 00:52:08;;;;;;;10.45;10.15;;;17.80;99.90;;;;;;6202823;23;20199;-84
2023/09/10 00:54:36;;;;;;;10.75;10.45;;;17.80;99.90;;;;;;6204346;23;20207;-82
2023/09/10 00:57:04;;;;;;;10.63;10.32;;;17.80;99.90;;;;;;6204120;23;20209;-82
2023/09/10 00:59:32;;;;;;;10.65;10.35;;;17.80;99.90;;;;;;6204022;23;20191;-82
2023/09/10 01:01:59;;;;;;;10.68;10.38;;;17.70;99.90;;;;;;6204033;23;20195;-82
2023/09/10 01:04:27;;;;;;;10.45;10.15;;;17.70;99.90;;;;;;6204882;23;20234;-83
2023/09/10 01:06:55;;;;;;;10.63;10.32;;;17.70;99.90;;;;;;6204449;23;20214;-82
2023/09/10 01:09:22;;;;;;;10.55;10.25;;;17.60;99.90;;;;;;6205067;23;20203;-83
2023/09/10 01:11:58;;;;;;;10.60;10.30;;;17.60;99.90;;;;;;6204868;23;20192;-82
2023/09/10 01:14:32;;;;;;;10.60;10.30;;;17.50;99.90;;;;;;6204580;23;20223;-82
2023/09/10 01:17:08;;;;;;;10.60;10.30;;;17.50;99.90;;;;;;6205482;23;20272;-82
2023/09/10 01:20:16;;;;;;;10.65;10.35;;;17.50;99.90;;;;;;6204429;23;20183;-83
2023/09/10 01:23:03;;;;;;;10.68;10.38;;;17.50;99.90;;;;;;6204795;23;20226;-82
2023/09/10 01:25:33;;;;;;;10.73;10.43;;;17.40;99.90;;;;;;6204574;23;20223;-82
2023/09/10 01:28:04;;;;;;;10.57;10.27;;;17.40;99.90;;;;;;6204444;23;20200;-82
2023/09/10 01:30:31;;;;;;;10.70;10.40;;;17.40;99.90;;;;;;6205255;23;20195;-83
2023/09/10 01:33:10;;;;;;;10.57;10.27;;;17.30;99.90;;;;;;6206425;23;20278;-84
2023/09/10 01:35:44;;;;;;;10.70;10.40;;;17.30;99.90;;;;;;6206542;23;20215;-83
2023/09/10 01:38:18;;;;;;;10.50;10.20;;;17.30;99.90;;;;;;6206500;23;20195;-83
2023/09/10 01:40:59;;;;;;;10.50;10.20;;;17.20;99.90;;;;;;6204262;23;20278;-83
2023/09/10 01:43:27;;;;;;;10.48;10.18;;;17.20;99.90;;;;;;6204739;23;20208;-83
2023/09/10 01:45:54;;;;;;;10.68;10.38;;;17.20;99.90;;;;;;6204952;23;20203;-83
2023/09/10 01:48:21;;;;;;;10.60;10.30;;;17.10;99.90;;;;;;6204619;23;20196;-84
2023/09/10 01:50:48;;;;;;;10.50;10.20;;;17.10;99.90;;;;;;6203942;23;20231;-84
2023/09/10 01:53:16;;;;;;;10.60;10.30;;;17.10;99.90;;;;;;6204672;23;20258;-83
2023/09/10 01:55:44;;;;;;;10.30;10.00;;;17.10;99.90;;;;;;6203892;23;20207;-83
2023/09/10 01:58:14;;;;;;;10.52;10.23;;;17.10;99.90;;;;;;6205425;23;20203;-83
2023/09/10 02:00:41;;;;;;;10.40;10.10;;;17.10;99.90;;;;;;6204278;23;20188;-84
2023/09/10 02:03:09;;;;;;;10.30;10.00;;;17.00;99.90;;;;;;6204311;23;20192;-83
2023/09/10 02:05:36;;;;;;;10.50;10.20;;;17.00;99.90;;;;;;6204136;23;20200;-83
2023/09/10 02:08:04;;;;;;;10.45;10.15;;;17.00;99.90;;;;;;6204324;23;20239;-83
2023/09/10 02:10:34;;;;;;;10.50;10.20;;;17.00;99.90;;;;;;6204095;23;20259;-83
2023/09/10 02:13:01;;;;;;;10.70;10.40;;;16.90;99.90;;;;;;6203879;23;20205;-84
2023/09/10 02:18:37;;;;;;;10.80;10.50;;;16.90;99.90;;;;;;6213832;22;20195;-96
2023/09/10 02:21:24;;;;;;;10.77;10.48;;;16.80;99.90;;;;;;6209876;22;20179;-94
2023/09/10 02:26:55;;;;;;;10.50;10.20;;;16.70;99.90;;;;;;6184273;23;20219;-91
2023/09/10 02:29:42;;;;;;;10.40;10.10;;;16.70;99.90;;;;;;6176432;23;20200;-92
2023/09/10 02:32:19;;;;;;;10.27;9.98;;;16.60;99.90;;;;;;6171776;23;20200;-92
2023/09/10 02:34:55;;;;;;;10.32;10.02;;;16.60;99.90;;;;;;6172156;23;20223;-92
2023/09/10 02:37:36;;;;;;;10.32;10.02;;;16.60;99.90;;;;;;6170585;23;20204;-91
2023/09/10 02:40:20;;;;;;;10.27;9.98;;;16.60;99.90;;;;;;6171444;23;20287;-90
2023/09/10 02:42:53;;;;;;;10.32;10.02;;;16.50;99.90;;;;;;6171624;23;20191;-91
2023/09/10 02:45:24;;;;;;;10.23;9.93;;;16.50;99.90;;;;;;6172394;23;20258;-93
2023/09/10 02:48:02;;;;;;;10.40;10.10;;;16.50;99.90;;;;;;6172395;23;20211;-92
2023/09/10 02:50:36;;;;;;;10.27;9.98;;;16.50;99.90;;;;;;6172373;23;20207;-91
2023/09/10 02:56:11;;;;;;;10.50;10.20;;;16.30;99.90;;;;;;6172016;23;20207;-93
2023/09/10 02:58:41;;;;;;;10.13;9.82;;;16.30;99.90;;;;;;6189520;23;20252;-94
2023/09/10 03:01:16;;;;;;;10.35;10.05;;;16.20;99.90;;;;;;6174446;23;20188;-93
2023/09/10 03:06:36;;;;;;;10.40;10.10;;;16.20;99.90;;;;;;6165104;23;20212;-92
2023/09/10 03:09:08;;;;;;;10.15;9.85;;;16.20;99.90;;;;;;6172149;23;20230;-91
2023/09/10 03:11:43;;;;;;;10.18;9.88;;;16.10;99.90;;;;;;6172837;23;20199;-91
2023/09/10 03:14:15;;;;;;;10.30;10.00;;;16.10;99.90;;;;;;6170146;23;20195;-92
2023/09/10 03:16:53;;;;;;;10.30;10.00;;;16.10;99.90;;;;;;6171055;23;20206;-92
2023/09/10 03:19:26;;;;;;;10.50;10.20;;;16.00;99.90;;;;;;6171341;23;20199;-91
2023/09/10 03:21:56;;;;;;;10.23;9.93;;;16.00;99.90;;;;;;6172410;23;20196;-93
2023/09/10 03:24:27;;;;;;;10.45;10.15;;;16.00;99.90;;;;;;6171913;23;20188;-93
2023/09/10 03:27:00;;;;;;;10.40;10.10;;;15.90;99.90;;;;;;6170825;23;20239;-93
2023/09/10 03:29:30;;;;;;;10.18;9.88;;;15.90;99.90;;;;;;6171040;23;20201;-93
2023/09/10 03:32:02;;;;;;;10.48;10.18;;;15.90;99.90;;;;;;6170663;23;20207;-93
2023/09/10 03:34:42;;;;;;;10.30;10.00;;;15.90;99.90;;;;;;6175381;23;20195;-94
2023/09/10 03:37:17;;;;;;;10.45;10.15;;;15.80;99.90;;;;;;6176109;23;20200;-92
2023/09/10 03:39:52;;;;;;;10.25;9.95;;;15.80;99.90;;;;;;6171611;23;20191;-93
2023/09/10 03:42:23;;;;;;;10.07;9.77;;;15.80;99.90;;;;;;6171078;23;20200;-92
2023/09/10 03:44:53;;;;;;;10.10;9.80;;;15.80;99.90;;;;;;6171190;23;20228;-92
2023/09/10 03:47:22;;;;;;;10.25;9.95;;;15.80;99.90;;;;;;6177065;23;20220;-93
2023/09/10 03:49:58;;;;;;;10.10;9.80;;;15.70;99.90;;;;;;6183223;23;20196;-94
2023/09/10 03:52:28;;;;;;;9.95;9.65;;;15.70;99.90;;;;;;6174523;23;20207;-93
2023/09/10 03:54:57;;;;;;;10.10;9.80;;;15.70;99.90;;;;;;6172199;23;20212;-93
2023/09/10 03:57:25;;;;;;;10.20;9.90;;;15.70;99.90;;;;;;6172054;23;20225;-93
2023/09/10 03:59:57;;;;;;;10.13;9.82;;;15.70;99.90;;;;;;6172245;23;20260;-93
2023/09/10 04:02:26;;;;;;;10.13;9.82;;;15.80;99.90;;;;;;6170442;23;20196;-92
2023/09/10 04:05:01;;;;;;;10.10;9.80;;;15.70;99.90;;;;;;6170818;23;20208;-94
2023/09/10 04:07:34;;;;;;;9.95;9.65;;;15.70;99.90;;;;;;6170666;23;20686;-92
2023/09/10 04:10:03;;;;;;;9.90;9.60;;;15.70;99.90;;;;;;6144741;23;20251;-92
2023/09/10 04:12:36;;;;;;;10.20;9.90;;;15.70;99.90;;;;;;6171200;23;20203;-91
2023/09/10 04:15:11;;;;;;;10.18;9.88;;;15.70;99.90;;;;;;6172478;23;20196;-91
2023/09/10 04:17:41;;;;;;;10.30;10.00;;;15.70;99.90;;;;;;6170906;23;20196;-91
2023/09/10 04:20:16;;;;;;;10.20;9.90;;;15.70;99.90;;;;;;6170605;23;20212;-91
2023/09/10 04:25:33;;;;;;;10.75;10.45;;;15.70;99.90;;;;;;6168919;23;20208;-92
2023/09/10 04:28:06;;;;;;;10.50;10.20;;;15.70;99.90;;;;;;6170770;23;20227;-92
2023/09/10 04:30:40;;;;;;;10.52;10.23;;;15.60;99.90;;;;;;6171520;23;20337;-91
2023/09/10 04:33:08;;;;;;;10.40;10.10;;;15.60;99.90;;;;;;6182150;23;20193;-92
2023/09/10 04:35:53;;;;;;;10.45;10.15;;;15.60;99.90;;;;;;6177111;23;20243;-91
2023/09/10 04:38:24;;;;;;;10.65;10.35;;;15.60;99.90;;;;;;6171788;23;20196;-92
2023/09/10 04:40:59;;;;;;;10.50;10.20;;;15.60;99.90;;;;;;6173607;23;20199;-92
2023/09/10 04:43:28;;;;;;;10.75;10.45;;;15.60;99.90;;;;;;6175796;23;20198;-92
2023/09/10 04:46:00;;;;;;;10.70;10.40;;;15.60;99.90;;;;;;6175230;23;20214;-92
2023/09/10 04:48:41;;;;;;;;;;;;;;;;;;;;;
2023/09/10 04:51:19;;;;;;;10.40;10.10;;;15.60;99.90;;;;;;6173769;23;20218;-91
2023/09/10 04:53:53;;;;;;;10.50;10.20;;;15.60;99.90;;;;;;6171447;23;20206;-91
2023/09/10 04:56:24;;;;;;;10.35;10.05;;;15.60;99.90;;;;;;6170637;23;20192;-92
2023/09/10 04:58:56;;;;;;;10.10;9.80;;;15.60;99.90;;;;;;6170082;23;20252;-92
2023/09/10 05:01:29;;;;;;;10.15;9.85;;;15.60;99.90;;;;;;6170266;23;20203;-91
2023/09/10 05:04:03;;;;;;;10.15;9.85;;;15.60;99.90;;;;;;6170250;23;20215;-91
2023/09/10 05:06:34;;;;;;;10.10;9.80;;;15.60;99.90;;;;;;6170787;23;20215;-92
2023/09/10 05:09:08;;;;;;;9.93;9.63;;;15.60;99.90;;;;;;6170701;23;20207;-91
2023/09/10 05:11:42;;;;;;;10.15;9.85;;;15.60;99.90;;;;;;6169805;23;20228;-92
2023/09/10 05:17:04;;;;;;;10.07;9.77;;;15.70;99.90;;;;;;6169197;23;20244;-92
2023/09/10 05:19:33;;;;;;;10.00;9.70;;;15.70;99.90;;;;;;6170232;23;20211;-91
2023/09/10 05:22:40;;;;;;;10.13;9.82;;;15.70;99.90;;;;;;6178230;23;20216;-93
2023/09/10 05:25:19;;;;;;;10.10;9.80;;;15.70;99.90;;;;;;6176750;23;20220;-92
2023/09/10 05:27:56;;;;;;;10.10;9.80;;;15.70;99.90;;;;;;6176131;23;20211;-92
2023/09/10 05:30:27;;;;;;;10.10;9.80;;;15.80;99.90;;;;;;6185192;23;20192;-93
2023/09/10 05:33:01;;;;;;;10.10;9.80;;;15.80;99.90;;;;;;6181404;23;20198;-92
2023/09/10 05:35:33;;;;;;;10.00;9.70;;;15.80;99.90;;;;;;6172090;23;20232;-92
2023/09/10 05:38:14;;;;;;;10.07;9.77;;;15.90;99.90;;;;;;6171391;23;20200;-91
2023/09/10 05:46:07;;;;;;;10.05;9.75;;;16.00;99.90;;;;;;6167726;23;20224;-92
2023/09/10 05:48:37;;;;;;;10.07;9.77;;;16.00;99.90;;;;;;6170262;23;20196;-91
2023/09/10 05:51:06;;;;;;;10.05;9.75;;;16.10;99.90;;;;;;6170520;23;20203;-91
2023/09/10 05:53:58;;;;;;;9.90;9.60;;;16.10;99.90;;;;;;6170343;23;20200;-92
2023/09/10 05:56:28;;;;;;;9.90;9.60;;;16.20;99.90;;;;;;6145640;23;20232;-92
2023/09/10 05:58:57;;;;;;;9.88;9.57;;;16.30;99.90;;;;;;6171046;23;20193;-91
2023/09/10 06:01:26;;;;;;;9.90;9.60;;;16.40;99.90;;;;;;6170945;23;20253;-91
2023/09/10 06:03:57;;;;;;;9.80;9.50;;;16.50;99.90;;;;;;6170507;23;20201;-91
2023/09/10 06:06:30;;;;;;;9.82;9.52;;;16.50;99.90;;;;;;6169955;23;20235;-92
2023/09/10 06:09:07;;;;;;;9.77;9.48;;;16.60;99.90;;;;;;6170155;23;20215;-91
2023/09/10 06:11:40;;;;;;;10.00;9.70;;;16.70;99.90;;;;;;6170076;23;20255;-91
2023/09/10 06:14:12;;;;;;;9.70;9.40;;;16.80;99.90;;;;;;6170815;23;20247;-91
2023/09/10 06:16:46;;;;;;;9.85;9.55;;;16.90;99.90;;;;;;6173969;23;20200;-92
2023/09/10 06:19:17;;;;;;;9.63;9.32;;;17.00;99.90;;;;;;6170952;23;20207;-92
2023/09/10 06:21:46;;;;;;;9.90;9.60;;;17.10;99.90;;;;;;6175725;23;20260;-92
2023/09/10 06:24:18;;;;;;;10.00;9.70;;;17.20;99.90;;;;;;6172616;23;20223;-92
2023/09/10 06:26:48;;;;;;;10.07;9.77;;;17.20;99.90;;;;;;6170539;23;20188;-91
2023/09/10 06:29:23;;;;;;;9.98;9.68;;;17.30;99.90;;;;;;6170532;23;20208;-93
2023/09/10 06:31:53;;;;;;;10.32;10.02;;;17.40;99.90;;;;;;6170031;23;20203;-92
2023/09/10 06:34:21;;;;;;;10.35;10.05;;;17.50;99.90;;;;;;6170309;23;20259;-92
2023/09/10 06:36:51;;;;;;;10.45;10.15;;;17.60;99.90;;;;;;6174831;23;20200;-93
2023/09/10 06:39:28;;;;;;;10.43;10.13;;;17.70;99.90;;;;;;6186226;23;20218;-92
2023/09/10 06:41:57;;;;;;;10.52;10.23;;;17.80;99.90;;;;;;6173061;23;20196;-94
2023/09/10 06:44:27;;;;;;;10.52;10.23;;;17.80;99.90;;;;;;6171767;23;20276;-92
2023/09/10 06:46:58;;;;;;;10.60;10.30;;;18.00;99.90;;;;;;6173199;23;20200;-92
2023/09/10 06:57:45;;;;;;;10.70;10.40;;;18.20;99.90;;;;;;6170264;23;20256;-93
2023/09/10 07:11:32;;;;;;;11.07;10.68;;;19.00;99.90;;;;;;6174115;23;20275;-91
2023/09/10 07:14:08;;;;;;;10.85;10.55;;;19.00;99.90;;;;;;6176706;23;20236;-92
2023/09/10 07:16:42;;;;;;;11.25;10.85;;;19.00;99.90;;;;;;6177957;23;20204;-92
2023/09/10 07:19:18;;;;;;;10.90;10.60;;;19.10;99.90;;;;;;6177441;23;20207;-92
2023/09/10 07:24:43;;;;;;;11.20;10.80;;;19.40;99.90;;;;;;6188584;23;20176;-94
2023/09/10 07:30:21;;;;;;;11.48;11.07;;;19.60;99.90;;;;;;6188862;23;20196;-93
2023/09/10 07:55:07;;;;;;;10.82;10.52;;;21.10;99.90;;;;;;6199470;23;20210;-92
2023/09/10 08:07:32;;;;;;;10.88;10.57;;;21.60;99.90;;;;;;6202103;23;20209;-92
2023/09/10 08:15:40;;;;;;;11.10;10.80;;;22.00;99.90;;;;;;6201383;22;20215;-79
2023/09/10 08:18:10;;;;;;;10.85;10.55;;;22.20;99.90;;;;;;6205368;23;20192;-80
2023/09/10 08:20:39;;;;;;;10.95;10.65;;;22.40;99.90;;;;;;6204804;23;20187;-80
2023/09/10 08:23:08;;;;;;;10.85;10.55;;;22.50;99.90;;;;;;6205674;23;20199;-80
2023/09/10 08:25:35;;;;;;;10.85;10.55;;;22.70;99.90;;;;;;6204978;23;20211;-80
2023/09/10 08:28:03;;;;;;;10.63;10.32;;;22.80;99.90;;;;;;6206519;23;20207;-81
2023/09/10 08:30:33;;;;;;;10.70;10.40;;;23.00;99.90;;;;;;6206629;23;20203;-78
2023/09/10 08:33:00;;;;;;;10.48;10.18;;;23.20;99.90;;;;;;6205462;23;20223;-80
2023/09/10 08:35:44;;;;;;;10.60;10.30;;;23.40;99.90;;;;;;6211074;23;20199;-80
2023/09/10 08:38:13;;;;;;;10.57;10.27;;;23.60;99.90;;;;;;6208423;23;20200;-80
2023/09/10 08:40:50;;;;;;;10.80;10.50;;;23.90;99.90;;;;;;6207720;23;20196;-80
2023/09/10 08:43:23;;;;;;;10.57;10.27;;;24.20;99.90;;;;;;6206644;23;20246;-80
2023/09/10 08:45:50;;;;;;;10.82;10.52;;;24.50;99.90;;;;;;6208076;23;20203;-80
2023/09/10 08:48:20;;;;;;;10.93;10.63;;;24.70;99.90;;;;;;6209484;23;20212;-80
2023/09/10 08:50:48;;;;;;;10.82;10.52;;;24.80;99.90;;;;;;6207152;23;20240;-79
2023/09/10 08:53:19;;;;;;;10.65;10.35;;;24.90;99.90;;;;;;6205503;23;20195;-80
2023/09/10 08:55:47;;;;;;;10.73;10.43;;;25.00;99.90;;;;;;6204721;23;20200;-80
2023/09/10 08:58:15;;;;;;;10.60;10.30;;;25.30;99.90;;;;;;6205759;23;20199;-80
2023/09/10 09:00:43;;;;;;;10.70;10.40;;;25.60;99.90;;;;;;6205918;23;20183;-80
2023/09/10 09:03:10;;;;;;;10.70;10.40;;;25.80;99.90;;;;;;6206534;23;20219;-82
2023/09/10 09:05:38;;;;;;;10.65;10.35;;;26.20;99.90;;;;;;6206629;23;20207;-80
2023/09/10 09:08:11;;;;;;;10.70;10.40;;;26.50;99.90;;;;;;6212354;23;20204;-80
2023/09/10 09:10:40;;;;;;;10.40;10.10;;;26.60;99.90;;;;;;6207546;23;20204;-81
2023/09/10 09:13:10;;;;;;;10.30;10.00;;;26.70;99.90;;;;;;6206495;23;20199;-81
2023/09/10 09:15:40;;;;;;;10.43;10.13;;;26.90;99.90;;;;;;6206147;23;20203;-80
2023/09/10 09:18:09;;;;;;;10.30;10.00;;;26.90;99.90;;;;;;6207333;23;20198;-81
2023/09/10 09:20:39;;;;;;;10.57;10.27;;;27.00;99.90;;;;;;6205744;23;20277;-80
2023/09/10 09:23:16;;;;;;;10.35;10.05;;;26.90;99.90;;;;;;6205646;23;20195;-81
2023/09/10 09:25:45;;;;;;;10.20;9.90;;;27.10;99.90;;;;;;6205964;23;20223;-81
2023/09/10 09:28:12;;;;;;;10.50;10.20;;;27.50;99.90;;;;;;6206330;23;20192;-81
2023/09/10 09:30:39;;;;;;;10.65;10.35;;;27.90;99.90;;;;;;6205100;23;20192;-81
2023/09/10 09:33:07;;;;;;;10.75;10.45;;;28.30;99.90;;;;;;6205661;23;20199;-81
2023/09/10 09:35:34;;;;;;;10.50;10.20;;;28.60;99.90;;;;;;6205546;23;20206;-81
2023/09/10 09:38:06;;;;;;;10.48;10.18;;;28.80;99.90;;;;;;6205758;23;20199;-82
2023/09/10 09:40:35;;;;;;;10.48;10.18;;;28.60;99.90;;;;;;6206225;23;20188;-81
2023/09/10 09:43:08;;;;;;;10.50;10.20;;;28.50;99.90;;;;;;6205409;23;20198;-81
2023/09/10 09:45:36;;;;;;;10.63;10.32;;;28.60;99.90;;;;;;6205800;23;20262;-82
2023/09/10 09:48:04;;;;;;;10.60;10.30;;;28.90;99.90;;;;;;6206911;23;20198;-81
2023/09/10 09:50:34;;;;;;;10.50;10.20;;;29.20;99.90;;;;;;6206278;23;20215;-81
2023/09/10 09:53:02;;;;;;;10.13;9.82;;;29.50;99.90;;;;;;6204905;23;20219;-80
2023/09/10 09:55:30;;;;;;;10.38;10.07;;;29.60;99.90;;;;;;6204958;23;20214;-81
2023/09/10 09:57:57;;;;;;;10.35;10.05;;;29.50;99.90;;;;;;6205437;23;20211;-81
2023/09/10 10:00:34;;;;;;;10.25;9.95;;;29.30;99.90;;;;;;6208330;23;20195;-81
2023/09/10 10:03:01;;;;;;;10.15;9.85;;;29.30;99.90;;;;;;6215534;23;20171;-81
2023/09/10 10:05:29;;;;;;;10.32;10.02;;;29.50;99.90;;;;;;6216763;22;20215;-81
2023/09/10 10:07:57;;;;;;;10.45;10.15;;;29.80;99.90;;;;;;6209962;23;20215;-81
2023/09/10 10:10:24;;;;;;;10.48;10.18;;;29.80;99.90;;;;;;6205476;23;20207;-81
2023/09/10 10:12:53;;;;;;;10.38;10.07;;;29.90;99.90;;;;;;6201926;23;20211;-81
2023/09/10 10:15:23;;;;;;;10.50;10.20;;;30.00;99.90;;;;;;6201381;23;20218;-81
2023/09/10 10:17:54;;;;;;;10.30;10.00;;;30.00;99.90;;;;;;6207354;23;20206;-80
2023/09/10 10:20:22;;;;;;;10.23;9.93;;;30.30;99.90;;;;;;6202412;23;20207;-81
2023/09/10 10:22:50;;;;;;;10.15;9.85;;;30.40;99.90;;;;;;6203116;23;20222;-81
2023/09/10 10:25:17;;;;;;;10.18;9.88;;;30.60;99.90;;;;;;6201610;23;20204;-81
2023/09/10 10:27:46;;;;;;;9.93;9.63;;;30.80;99.90;;;;;;6203158;23;20227;-81
2023/09/10 10:30:14;;;;;;;10.25;9.95;;;30.80;99.90;;;;;;6203323;23;20188;-81
2023/09/10 10:32:44;;;;;;;10.25;9.95;;;30.60;99.90;;;;;;6201973;23;20216;-81
2023/09/10 10:35:13;;;;;;;10.25;9.95;;;30.80;99.90;;;;;;6202941;23;20269;-81
2023/09/10 10:37:49;;;;;;;10.38;10.07;;;30.90;99.90;;;;;;6202742;23;20203;-81
2023/09/10 10:40:20;;;;;;;10.35;10.05;;;31.10;99.90;;;;;;6203262;23;20255;-81
2023/09/10 10:42:51;;;;;;;10.60;10.30;;;31.50;99.90;;;;;;6203553;23;20187;-81
2023/09/10 10:45:31;;;;;;;10.55;10.25;;;31.90;99.90;;;;;;6203673;23;20204;-81
2023/09/10 10:48:12;;;;;;;10.40;10.10;;;32.10;99.90;;;;;;6206132;23;20318;-81
2023/09/10 10:50:45;;;;;;;10.63;10.32;;;32.50;99.90;;;;;;6204923;23;20286;-80
2023/09/10 10:53:19;;;;;;;10.40;10.10;;;32.80;99.90;;;;;;6204642;23;20207;-80
2023/09/10 10:55:50;;;;;;;10.40;10.10;;;33.10;99.90;;;;;;6213237;23;20194;-81
2023/09/10 10:58:19;;;;;;;10.32;10.02;;;33.10;99.90;;;;;;6211574;23;20196;-81
2023/09/10 11:00:49;;;;;;;10.38;10.07;;;33.20;99.90;;;;;;6214390;23;20175;-81
2023/09/10 11:03:17;;;;;;;10.15;9.85;;;33.30;99.90;;;;;;6206462;23;20195;-81
2023/09/10 11:06:07;;;;;;;10.30;10.00;;;33.20;99.90;;;;;;6200233;23;20223;-81
2023/09/10 11:08:36;;;;;;;10.40;10.10;;;33.30;99.90;;;;;;6202003;23;20195;-81
2023/09/10 11:11:05;;;;;;;10.18;9.88;;;33.50;99.90;;;;;;6203003;23;20199;-81
2023/09/10 11:13:33;;;;;;;10.00;9.70;;;33.50;99.90;;;;;;6200976;23;20199;-81
2023/09/10 11:16:16;;;;;;;10.00;9.70;;;33.60;99.90;;;;;;6201099;23;20203;-81
2023/09/10 11:18:44;;;;;;;10.00;9.70;;;33.50;99.90;;;;;;6202796;23;20312;-81
2023/09/10 11:21:14;;;;;;;10.05;9.75;;;33.40;99.90;;;;;;6203607;23;20208;-81
2023/09/10 11:24:22;;;;;;;10.07;9.77;;;33.30;99.90;;;;;;6204763;23;20298;-81
2023/09/10 11:26:50;;;;;;;10.10;9.80;;;33.30;99.90;;;;;;6192489;23;20251;-81
2023/09/10 11:29:18;;;;;;;10.15;9.85;;;33.40;99.90;;;;;;6206221;23;20296;-81
2023/09/10 11:31:48;;;;;;;10.10;9.80;;;33.50;99.90;;;;;;6205555;23;20196;-81
2023/09/10 11:34:40;;;;;;;10.00;9.70;;;33.60;99.90;;;;;;6205751;23;20232;-81
2023/09/10 11:37:10;;;;;;;10.00;9.70;;;33.90;99.90;;;;;;6206001;23;20261;-82
2023/09/10 11:39:38;;;;;;;10.30;10.00;;;34.10;99.90;;;;;;6204650;23;20250;-80
2023/09/10 11:42:11;;;;;;;10.00;9.70;;;34.40;99.90;;;;;;6203391;23;20210;-80
2023/09/10 11:44:38;;;;;;;10.10;9.80;;;34.60;99.90;;;;;;6204901;23;20195;-81
2023/09/10 11:47:06;;;;;;;10.30;10.00;;;34.60;99.90;;;;;;6203865;23;20210;-80
2023/09/10 11:49:33;;;;;;;10.23;9.93;;;34.60;99.90;;;;;;6205347;23;20242;-80
2023/09/10 11:52:00;;;;;;;10.07;9.77;;;34.60;99.90;;;;;;6205126;23;20199;-83
2023/09/10 11:54:31;;;;;;;10.10;9.80;;;34.50;99.90;;;;;;6205430;23;20210;-81
2023/09/10 11:56:59;;;;;;;10.30;10.00;;;34.70;99.90;;;;;;6211533;23;20211;-79
2023/09/10 11:59:29;;;;;;;10.07;9.77;;;34.50;99.90;;;;;;6217670;23;20192;-79
2023/09/10 12:01:58;;;;;;;10.10;9.80;;;34.70;99.90;;;;;;6217418;23;20188;-80
2023/09/10 12:04:29;;;;;;;10.20;9.90;;;34.90;99.90;;;;;;6211614;23;20188;-81
2023/09/10 12:06:56;;;;;;;10.20;9.90;;;35.20;99.90;;;;;;6205824;23;20209;-81
2023/09/10 12:09:24;;;;;;;10.15;9.85;;;35.40;99.90;;;;;;6205706;23;20195;-80
2023/09/10 12:11:55;;;;;;;10.15;9.85;;;35.70;99.90;;;;;;6205657;23;20188;-81
2023/09/10 12:14:23;;;;;;;10.30;10.00;;;35.90;99.90;;;;;;6205677;23;20219;-80
2023/09/10 12:16:51;;;;;;;10.30;10.00;;;35.70;99.90;;;;;;6205226;23;20207;-81
2023/09/10 12:19:18;;;;;;;10.18;9.88;;;35.70;99.90;;;;;;6205646;23;20205;-80
2023/09/10 12:21:46;;;;;;;10.00;9.70;;;35.90;99.90;;;;;;6204084;23;20207;-80
2023/09/10 12:24:13;;;;;;;10.20;9.90;;;36.10;99.90;;;;;;6205254;23;20274;-81
2023/09/10 12:26:41;;;;;;;10.02;9.73;;;35.90;99.90;;;;;;6205448;23;20228;-81
2023/09/10 12:29:09;;;;;;;9.90;9.60;;;35.60;99.90;;;;;;6204887;23;20235;-82
2023/09/10 12:31:37;;;;;;;9.98;9.68;;;35.70;99.90;;;;;;6204010;23;20203;-81
2023/09/10 12:34:04;;;;;;;9.98;9.68;;;35.70;99.90;;;;;;6204946;23;20203;-80
2023/09/10 12:36:31;;;;;;;10.10;9.80;;;35.80;99.90;;;;;;6205389;23;20206;-80
2023/09/10 12:39:00;;;;;;;10.20;9.90;;;35.60;99.90;;;;;;6204496;23;20192;-80
2023/09/10 12:41:28;;;;;;;10.20;9.90;;;35.50;99.90;;;;;;6204886;23;20243;-80
2023/09/10 12:43:56;;;;;;;10.30;10.00;;;35.60;99.90;;;;;;6204997;23;21025;-81
2023/09/10 12:46:26;;;;;;;10.20;9.90;;;35.40;99.90;;;;;;6205267;23;20215;-81
2023/09/10 12:48:53;;;;;;;10.07;9.77;;;35.40;99.90;;;;;;6204736;23;20187;-81
2023/09/10 12:51:20;;;;;;;10.20;9.90;;;35.60;99.90;;;;;;6203469;23;20218;-80
2023/09/10 12:53:48;;;;;;;10.10;9.80;;;35.80;99.90;;;;;;6206413;23;20203;-81
2023/09/10 12:56:15;;;;;;;10.25;9.95;;;36.10;99.90;;;;;;6206494;23;20210;-80
2023/09/10 12:58:43;;;;;;;10.05;9.75;;;36.20;99.90;;;;;;6207729;23;20199;-80
2023/09/10 13:01:14;;;;;;;10.20;9.90;;;36.10;99.90;;;;;;6206742;23;20215;-81
2023/09/10 13:03:43;;;;;;;10.13;9.82;;;36.10;99.90;;;;;;6205713;23;20192;-81
2023/09/10 13:06:11;;;;;;;10.32;10.02;;;36.30;99.90;;;;;;6205241;23;20317;-82
2023/09/10 13:08:38;;;;;;;10.27;9.98;;;36.50;99.90;;;;;;6206050;23;20218;-81
2023/09/10 13:11:05;;;;;;;10.25;9.95;;;36.70;99.90;;;;;;6205446;23;20211;-81
2023/09/10 13:13:32;;;;;;;10.35;10.05;;;36.80;99.90;;;;;;6205107;23;20202;-80
2023/09/10 13:16:00;;;;;;;10.52;10.23;;;36.70;99.90;;;;;;6204408;23;20216;-81
2023/09/10 13:18:27;;;;;;;10.43;10.13;;;36.70;99.90;;;;;;6203954;23;20200;-81
2023/09/10 13:20:55;;;;;;;10.60;10.30;;;36.90;99.90;;;;;;6204125;23;20239;-80
2023/09/10 13:23:23;;;;;;;10.70;10.40;;;37.10;99.90;;;;;;6204756;23;20203;-80
2023/09/10 13:25:50;;;;;;;10.70;10.40;;;37.40;99.90;;;;;;6204267;23;20250;-81
2023/09/10 13:28:17;;;;;;;10.80;10.50;;;37.60;99.90;;;;;;6204676;23;20230;-81
2023/09/10 13:30:45;;;;;;;10.75;10.45;;;37.50;99.90;;;;;;6204388;23;20223;-81
2023/09/10 13:33:12;;;;;;;10.70;10.40;;;37.30;99.90;;;;;;6204243;23;20210;-81
2023/09/10 13:35:40;;;;;;;10.70;10.40;;;37.20;99.90;;;;;;6204742;23;20207;-81
2023/09/10 13:38:08;;;;;;;10.15;9.85;;;37.20;99.90;;;;;;6203899;23;20275;-81
2023/09/10 13:40:36;;;;;;;10.20;9.90;;;37.20;99.90;;;;;;6204305;23;20195;-81
2023/09/10 13:43:03;;;;;;;10.30;10.00;;;37.30;99.90;;;;;;6203310;23;20227;-81
2023/09/10 13:45:30;;;;;;;10.10;9.80;;;37.30;99.90;;;;;;6204513;23;20227;-81
2023/09/10 13:47:57;;;;;;;10.00;9.70;;;37.10;99.90;;;;;;6205104;23;20204;-82
2023/09/10 13:50:24;;;;;;;10.20;9.90;;;36.90;99.90;;;;;;6205086;23;20222;-81
2023/09/10 13:52:52;;;;;;;10.30;10.00;;;37.10;99.90;;;;;;6204080;23;20192;-81
2023/09/10 13:55:20;;;;;;;10.40;10.10;;;36.90;99.90;;;;;;6202014;23;20199;-80
2023/09/10 13:57:47;;;;;;;10.38;10.07;;;36.90;99.90;;;;;;6202554;23;20203;-81
2023/09/10 14:00:15;;;;;;;10.23;9.93;;;37.00;99.90;;;;;;6202935;23;20210;-82
2023/09/10 14:02:42;;;;;;;10.15;9.85;;;37.20;99.90;;;;;;6203136;23;20203;-82
2023/09/10 14:05:10;;;;;;;10.15;9.85;;;37.00;99.90;;;;;;6204034;23;20200;-81
2023/09/10 14:07:37;;;;;;;10.18;9.88;;;36.40;99.90;;;;;;6203590;23;20238;-82
2023/09/10 14:10:04;;;;;;;10.20;9.90;;;36.20;99.90;;;;;;6203860;23;20215;-82
2023/09/10 14:12:33;;;;;;;10.40;10.10;;;36.10;99.90;;;;;;6204307;23;20192;-82
2023/09/10 14:15:00;;;;;;;10.10;9.80;;;36.10;99.90;;;;;;6204763;23;20226;-81
2023/09/10 14:30:01;;;;;;;9.75;9.45;;;36.50;99.90;;;;;;6202903;23;20204;-91
2023/09/10 14:58:00;;;;;;;9.52;9.23;;;36.20;99.90;;;;;;5983445;23;20203;-91
2023/09/10 20:16:41;;;;;;;10.80;10.50;;;23.50;99.90;;;;;;6179902;23;20238;-83